»·PEaware :: N3539W KAPV-KBFL

N3539W :: KAPV-KBFL

FLIGHT INFORMATION

Flight Status: Arrived
Operator: Privately registered:
United States
More flights under this callsign
Pilot: Joerg P. (23850)
Aircraft: PIPER PA-32 SARATOGA
(PA32)
More flights by this aircraft type
Origin: KAPV Apple Valley
United States
Destination: KBFL Meadows
United States
More flights between these airports :: More routes between these airports
Route:
File this flight plan on PilotEdge
Remarks:
Altitude:
(Current/Filed)
8,500ft
Speed:
(Current/Filed)
130kts
Departed: 17-Jul-20 06:40 PM
Arrived: 17-Jul-20 07:30 PM
Distance/Time
Traveled:
105nm/0:50
Distance/Time
To Go:
Arrived

Flight Plot

Page will automatically refresh every two minutes.


Map Options




Map Legend


Flown Route
Filed Route
Departure Airport
Arrival Airport
Navaid (VOR, NDB)
Fix

Horizontal Profiles

Position Reports

Time Latitude Longitude Heading Altitude Ground
Speed
17-Jul-20 18:35 34.575952 -117.190474 89 3065ft 0kts
17-Jul-20 18:36 34.575935 -117.189477 93 3065ft 9kts
17-Jul-20 18:37 34.576548 -117.187779 12 3065ft 7kts
17-Jul-20 18:38 34.582875 -117.185607 15 3065ft 28kts
17-Jul-20 18:39 34.587685 -117.183578 94 3065ft 0kts
17-Jul-20 18:40 34.577535 -117.185384 193 3172ft 95kts
17-Jul-20 18:41 34.550150 -117.195247 220 4014ft 106kts
17-Jul-20 18:42 34.558099 -117.224836 311 4880ft 112kts
17-Jul-20 18:43 34.580562 -117.245324 325 5537ft 123kts
17-Jul-20 18:44 34.608970 -117.270037 314 6254ft 128kts
17-Jul-20 18:45 34.625702 -117.305911 272 6951ft 121kts
17-Jul-20 18:46 34.623315 -117.346290 257 7579ft 121kts
17-Jul-20 18:47 34.625367 -117.387847 270 8180ft 124kts
17-Jul-20 18:48 34.626991 -117.430974 265 8504ft 138kts
17-Jul-20 18:49 34.630926 -117.478511 276 8556ft 144kts
17-Jul-20 18:49 34.637494 -117.518541 273 8626ft 143kts
17-Jul-20 18:50 34.641036 -117.566945 262 8651ft 143kts
17-Jul-20 18:52 34.643576 -117.625042 264 8514ft 150kts
17-Jul-20 18:52 34.642387 -117.667066 263 8484ft 147kts
17-Jul-20 18:53 34.640092 -117.716659 258 8475ft 143kts
17-Jul-20 18:55 34.637600 -117.772653 271 8538ft 144kts
17-Jul-20 18:55 34.634879 -117.812348 243 8538ft 141kts
17-Jul-20 18:56 34.633167 -117.861022 260 8553ft 145kts
17-Jul-20 18:57 34.631095 -117.909701 267 8586ft 146kts
17-Jul-20 18:58 34.631761 -117.958866 264 8604ft 146kts
17-Jul-20 18:59 34.629995 -118.007382 246 8604ft 145kts
17-Jul-20 19:00 34.627885 -118.055721 292 8609ft 152kts
17-Jul-20 19:01 34.657976 -118.092315 318 8600ft 154kts
17-Jul-20 19:02 34.688629 -118.129183 311 8545ft 156kts
17-Jul-20 19:03 34.715761 -118.169654 303 8575ft 151kts
17-Jul-20 19:04 34.745538 -118.206766 324 8545ft 154kts
17-Jul-20 19:05 34.777765 -118.240534 313 8607ft 152kts
17-Jul-20 19:06 34.806728 -118.279342 309 8524ft 155kts
17-Jul-20 19:07 34.834240 -118.319429 320 8473ft 156kts
17-Jul-20 19:08 34.865322 -118.354889 311 8576ft 151kts
17-Jul-20 19:09 34.895905 -118.390562 321 8599ft 155kts
17-Jul-20 19:10 34.922379 -118.430409 307 8631ft 155kts
17-Jul-20 19:11 34.948673 -118.471518 302 8676ft 152kts
17-Jul-20 19:12 34.971639 -118.515030 303 8680ft 153kts
17-Jul-20 19:13 34.996105 -118.555978 313 8689ft 150kts
17-Jul-20 19:14 35.029389 -118.586389 321 8619ft 149kts
17-Jul-20 19:15 35.064940 -118.613155 329 8543ft 144kts
17-Jul-20 19:16 35.097721 -118.641811 319 8604ft 141kts
17-Jul-20 19:17 35.126333 -118.676256 312 8299ft 148kts
17-Jul-20 19:18 35.157212 -118.709566 314 7731ft 148kts
17-Jul-20 19:19 35.185733 -118.745552 306 7190ft 146kts
17-Jul-20 19:20 35.213804 -118.782110 310 6628ft 147kts
17-Jul-20 19:21 35.240845 -118.819257 309 6102ft 146kts
17-Jul-20 19:22 35.267760 -118.856268 315 5585ft 146kts
17-Jul-20 19:23 35.296836 -118.890561 314 4853ft 148kts
17-Jul-20 19:24 35.326187 -118.925006 311 4079ft 145kts
17-Jul-20 19:25 35.353742 -118.959461 313 3242ft 141kts
17-Jul-20 19:26 35.381014 -118.992835 313 2445ft 138kts
17-Jul-20 19:27 35.406314 -119.023212 315 1522ft 102kts
17-Jul-20 19:28 35.425159 -119.045788 316 710ft 89kts
17-Jul-20 19:29 35.437291 -119.060260 334 494ft 22kts
17-Jul-20 19:30 35.438243 -119.059455 92 499ft 0kts
17-Jul-20 19:31 35.435724 -119.056170 134 496ft 25kts
17-Jul-20 19:32 35.429361 -119.048561 133 493ft 33kts
17-Jul-20 19:33 35.429479 -119.046655 136 498ft 0kts
17-Jul-20 19:34 35.429479 -119.046655 136 498ft 0kts
17-Jul-20 19:35 35.429479 -119.046655 136 498ft 0kts
17-Jul-20 19:36 35.429479 -119.046655 136 498ft 0kts

Navigation Log

Ident Type
Flight plan parsing failed, navigation log unavailable